Time;durP1;ratioP1;P1;durP2;ratioP2;P2;SDS_P1;SDS_P2;PMS_P1;PMS_P2;Temp;Humidity;BMP_temperature;BMP_pressure;BME280_temperature;BME280_humidity;BME280_pressure;Samples;Min_cycle;Max_cycle;Signal;HPM_P1;HPM_P2
2022/01/23 00:00:02;;;;;;;17.70;5.80;;;;;;;;;;5020438;28;20046;-66
2022/01/23 00:02:29;;;;;;;21.93;7.30;;;;;;;;;;5032062;28;20867;-68
2022/01/23 00:04:55;;;;;;;15.83;6.43;;;;;;;;;;5025476;28;20527;-67
2022/01/23 00:07:22;;;;;;;14.03;6.40;;;;;;;;;;5027254;28;20468;-67
2022/01/23 00:09:48;;;;;;;19.80;8.07;;;;;;;;;;5019620;28;20496;-67
2022/01/23 00:12:19;;;;;;;20.50;7.60;;;;;;;;;;5027045;28;20114;-67
2022/01/23 00:17:36;;;;;;;23.37;8.03;;;;;;;;;;5023588;28;20508;-68
2022/01/23 00:20:04;;;;;;;18.57;8.77;;;;;;;;;;5029776;28;20060;-67
2022/01/23 00:22:40;;;;;;;21.30;7.93;;;;;;;;;;5031541;28;20046;-67
2022/01/23 00:30:36;;;;;;;18.60;8.80;;;;;;;;;;5031280;28;20049;-67
2022/01/23 00:33:04;;;;;;;22.90;9.87;;;;;;;;;;5030826;28;20064;-67
2022/01/23 00:35:30;;;;;;;22.30;9.00;;;;;;;;;;5031160;28;20049;-67
2022/01/23 00:37:57;;;;;;;24.53;9.10;;;;;;;;;;5008717;28;20091;-67
2022/01/23 00:40:24;;;;;;;27.33;10.00;;;;;;;;;;5031044;28;20037;-67
2022/01/23 00:42:53;;;;;;;24.50;10.13;;;;;;;;;;5031014;28;20050;-66
2022/01/23 00:45:30;;;;;;;31.50;10.00;;;;;;;;;;5030597;28;20526;-67
2022/01/23 00:48:01;;;;;;;19.33;8.40;;;;;;;;;;5029539;28;20060;-67
2022/01/23 00:50:28;;;;;;;26.07;9.27;;;;;;;;;;5029726;28;20049;-67
2022/01/23 00:52:54;;;;;;;19.80;9.13;;;;;;;;;;5030430;28;20049;-67
2022/01/23 00:55:20;;;;;;;26.13;10.10;;;;;;;;;;5030521;28;20442;-67
2022/01/23 00:57:46;;;;;;;19.47;9.70;;;;;;;;;;5030972;28;20045;-67
2022/01/23 01:00:12;;;;;;;22.30;9.00;;;;;;;;;;5029155;28;20060;-67
2022/01/23 01:02:38;;;;;;;23.20;9.07;;;;;;;;;;5031334;28;20057;-67
2022/01/23 01:05:04;;;;;;;34.00;10.53;;;;;;;;;;5030887;28;20050;-66
2022/01/23 01:07:31;;;;;;;24.70;8.90;;;;;;;;;;5030299;28;20069;-67
2022/01/23 01:10:01;;;;;;;21.77;9.47;;;;;;;;;;5030570;28;20526;-67
2022/01/23 01:12:37;;;;;;;21.53;9.70;;;;;;;;;;5029941;28;20071;-66
2022/01/23 01:30:14;;;;;;;29.00;11.23;;;;;;;;;;5028970;28;20516;-67
2022/01/23 01:36:26;;;;;;;39.80;12.30;;;;;;;;;;5030788;28;20056;-67
2022/01/23 01:38:53;;;;;;;40.87;11.77;;;;;;;;;;5029744;28;20049;-67
2022/01/23 01:41:19;;;;;;;36.33;11.57;;;;;;;;;;5030246;28;20124;-66
2022/01/23 01:43:47;;;;;;;30.47;12.03;;;;;;;;;;5030839;28;20049;-66
2022/01/23 01:46:13;;;;;;;44.30;13.07;;;;;;;;;;5029316;28;20037;-67
2022/01/23 01:48:39;;;;;;;31.90;12.07;;;;;;;;;;5029948;28;20037;-68
2022/01/23 01:51:09;;;;;;;35.53;13.07;;;;;;;;;;5030494;28;20099;-67
2022/01/23 01:53:35;;;;;;;49.40;14.97;;;;;;;;;;5030368;28;20049;-67
2022/01/23 01:56:04;;;;;;;38.10;11.93;;;;;;;;;;5028676;28;20079;-67
2022/01/23 02:02:39;;;;;;;34.73;11.80;;;;;;;;;;5029099;28;20107;-67
2022/01/23 02:09:23;;;;;;;42.37;11.77;;;;;;;;;;5030068;28;20569;-67
2022/01/23 02:52:37;;;;;;;59.60;14.20;;;;;;;;;;5028593;28;20050;-67
2022/01/23 02:55:11;;;;;;;28.73;10.03;;;;;;;;;;5038543;28;20427;-67
2022/01/23 02:57:53;;;;;;;35.10;11.67;;;;;;;;;;5029315;28;20508;-67
2022/01/23 03:00:21;;;;;;;23.70;10.40;;;;;;;;;;5024099;28;20519;-67
2022/01/23 03:02:51;;;;;;;29.77;10.53;;;;;;;;;;5029062;28;20053;-67
2022/01/23 03:10:39;;;;;;;40.53;11.30;;;;;;;;;;5028267;28;20050;-67
2022/01/23 03:34:08;;;;;;;37.53;11.93;;;;;;;;;;5028224;28;20071;-67
2022/01/23 03:36:36;;;;;;;48.77;13.60;;;;;;;;;;5027445;28;20102;-67
2022/01/23 03:39:02;;;;;;;33.47;11.97;;;;;;;;;;5026796;28;20046;-67
2022/01/23 03:41:28;;;;;;;38.87;12.77;;;;;;;;;;5008512;28;20049;-66
2022/01/23 03:43:54;;;;;;;43.70;12.53;;;;;;;;;;5027093;28;20048;-67
2022/01/23 03:46:46;;;;;;;35.53;12.80;;;;;;;;;;5018769;28;20044;-67
2022/01/23 03:51:53;;;;;;;36.07;12.40;;;;;;;;;;5024771;28;20045;-67
2022/01/23 03:54:19;;;;;;;43.10;12.97;;;;;;;;;;5031558;28;20037;-67
2022/01/23 03:56:45;;;;;;;34.30;12.23;;;;;;;;;;5032131;28;20052;-67
2022/01/23 03:59:11;;;;;;;41.50;12.73;;;;;;;;;;5031791;28;20079;-67
2022/01/23 04:01:37;;;;;;;23.17;11.33;;;;;;;;;;5028139;28;20545;-67
2022/01/23 04:04:11;;;;;;;34.17;12.07;;;;;;;;;;5029355;28;20048;-67
2022/01/23 04:06:37;;;;;;;38.17;12.17;;;;;;;;;;5030001;28;20041;-67
2022/01/23 04:09:03;;;;;;;36.20;12.90;;;;;;;;;;5031672;28;20064;-67
2022/01/23 04:11:29;;;;;;;30.93;11.10;;;;;;;;;;5030964;28;20045;-66
2022/01/23 04:14:02;;;;;;;68.37;14.80;;;;;;;;;;5029741;28;20503;-68
2022/01/23 04:16:49;;;;;;;34.42;11.38;;;;;;;;;;5026180;28;20089;-67
2022/01/23 04:47:30;;;;;;;51.20;13.40;;;;;;;;;;5039020;28;20076;-67
2022/01/23 05:00:18;;;;;;;47.37;13.73;;;;;;;;;;5036414;28;20405;-67
2022/01/23 05:05:33;;;;;;;49.27;15.17;;;;;;;;;;5034525;28;20057;-67
2022/01/23 05:08:03;;;;;;;74.10;16.83;;;;;;;;;;5045940;28;20518;-67
2022/01/23 05:10:29;;;;;;;62.80;15.70;;;;;;;;;;5039322;28;20045;-67
2022/01/23 05:12:55;;;;;;;53.07;16.50;;;;;;;;;;5040422;28;20036;-67
2022/01/23 05:15:22;;;;;;;61.47;17.00;;;;;;;;;;5037383;28;20107;-67
2022/01/23 05:17:48;;;;;;;60.00;17.40;;;;;;;;;;5035773;28;20045;-67
2022/01/23 05:20:16;;;;;;;59.97;18.30;;;;;;;;;;5041175;28;20499;-67
2022/01/23 05:22:47;;;;;;;63.40;19.47;;;;;;;;;;5039996;28;20513;-67
2022/01/23 05:25:21;;;;;;;73.47;20.33;;;;;;;;;;5041349;28;20514;-67
2022/01/23 05:27:51;;;;;;;64.40;20.63;;;;;;;;;;5052512;28;20067;-67
2022/01/23 05:30:17;;;;;;;84.83;21.33;;;;;;;;;;5039613;28;20048;-67
2022/01/23 05:32:44;;;;;;;67.97;20.03;;;;;;;;;;5040323;28;20079;-67
2022/01/23 05:35:11;;;;;;;62.47;20.53;;;;;;;;;;5041762;28;20044;-67
2022/01/23 05:37:38;;;;;;;65.97;19.20;;;;;;;;;;5039163;28;20081;-67
2022/01/23 05:40:05;;;;;;;79.83;19.70;;;;;;;;;;5038986;28;20071;-67
2022/01/23 05:42:31;;;;;;;83.07;22.53;;;;;;;;;;5038269;28;20053;-67
2022/01/23 05:44:57;;;;;;;78.00;28.73;;;;;;;;;;5033826;28;20053;-66
2022/01/23 05:47:23;;;;;;;64.27;19.10;;;;;;;;;;5027130;28;20086;-67
2022/01/23 05:49:49;;;;;;;65.80;20.17;;;;;;;;;;5027218;28;20041;-68
2022/01/23 05:52:15;;;;;;;70.57;18.87;;;;;;;;;;5027401;28;20084;-67
2022/01/23 05:54:41;;;;;;;75.23;20.03;;;;;;;;;;5028792;28;20054;-67
2022/01/23 05:57:07;;;;;;;61.60;18.53;;;;;;;;;;5028104;28;20120;-67
2022/01/23 05:59:33;;;;;;;73.70;20.17;;;;;;;;;;5025289;28;20046;-67
2022/01/23 06:01:59;;;;;;;89.73;21.73;;;;;;;;;;5028667;28;20038;-67
2022/01/23 06:04:26;;;;;;;102.90;22.90;;;;;;;;;;5026691;28;20411;-67
2022/01/23 06:06:53;;;;;;;99.70;23.37;;;;;;;;;;5021225;28;20037;-67
2022/01/23 06:09:21;;;;;;;57.77;17.97;;;;;;;;;;5029673;28;20088;-67
2022/01/23 06:11:47;;;;;;;69.50;18.97;;;;;;;;;;5028791;28;20084;-67
2022/01/23 06:14:13;;;;;;;75.20;20.47;;;;;;;;;;5029276;28;20476;-67
2022/01/23 06:16:40;;;;;;;69.50;20.60;;;;;;;;;;5028008;28;20053;-67
2022/01/23 06:19:06;;;;;;;77.43;19.83;;;;;;;;;;5019184;28;20052;-67
2022/01/23 06:21:32;;;;;;;81.50;21.93;;;;;;;;;;5027051;28;20060;-67
2022/01/23 06:24:11;;;;;;;77.10;20.93;;;;;;;;;;5028354;28;20041;-67
2022/01/23 06:26:47;;;;;;;75.83;20.13;;;;;;;;;;5027899;28;20049;-67
2022/01/23 06:29:15;;;;;;;80.27;20.27;;;;;;;;;;5025490;28;20045;-67
2022/01/23 06:31:41;;;;;;;70.37;19.83;;;;;;;;;;5028572;28;20060;-67
2022/01/23 06:34:07;;;;;;;103.10;21.83;;;;;;;;;;5028409;28;20041;-67
2022/01/23 06:36:34;;;;;;;92.43;21.53;;;;;;;;;;5027860;28;20038;-68
2022/01/23 06:39:01;;;;;;;124.43;24.50;;;;;;;;;;5028963;28;20103;-67
2022/01/23 06:41:27;;;;;;;65.90;19.10;;;;;;;;;;5010139;28;20049;-67
2022/01/23 06:43:53;;;;;;;64.97;18.43;;;;;;;;;;5028438;28;20044;-67
2022/01/23 06:46:19;;;;;;;72.57;19.87;;;;;;;;;;5027472;28;20400;-67
2022/01/23 06:48:45;;;;;;;60.90;18.90;;;;;;;;;;5025444;28;20056;-67
2022/01/23 06:51:11;;;;;;;47.90;16.33;;;;;;;;;;5028298;28;20052;-67
2022/01/23 06:53:37;;;;;;;52.53;16.13;;;;;;;;;;5027142;28;20091;-68
2022/01/23 06:56:03;;;;;;;68.53;19.67;;;;;;;;;;5028272;28;20037;-68
2022/01/23 06:58:29;;;;;;;52.03;16.23;;;;;;;;;;5026998;28;20128;-67
2022/01/23 07:00:55;;;;;;;57.33;16.37;;;;;;;;;;5027952;28;20053;-68
2022/01/23 07:03:21;;;;;;;57.37;17.67;;;;;;;;;;5029080;28;20068;-68
2022/01/23 07:05:47;;;;;;;56.17;17.50;;;;;;;;;;5028467;28;20443;-68
2022/01/23 07:08:13;;;;;;;52.90;15.67;;;;;;;;;;5028468;28;20441;-67
2022/01/23 07:10:39;;;;;;;65.70;18.00;;;;;;;;;;5028300;28;20085;-67
2022/01/23 07:13:05;;;;;;;54.80;16.70;;;;;;;;;;5027689;28;20075;-68
2022/01/23 07:15:31;;;;;;;60.10;17.80;;;;;;;;;;5027998;28;20053;-68
2022/01/23 07:17:57;;;;;;;53.50;15.80;;;;;;;;;;5019441;28;20061;-67
2022/01/23 07:20:23;;;;;;;48.33;16.17;;;;;;;;;;5028547;28;20056;-67
2022/01/23 07:22:49;;;;;;;61.60;18.43;;;;;;;;;;5026351;28;20049;-68
2022/01/23 07:25:15;;;;;;;98.80;21.37;;;;;;;;;;5010013;28;20140;-67
2022/01/23 07:27:48;;;;;;;53.17;15.93;;;;;;;;;;5027489;28;20049;-68
2022/01/23 07:30:36;;;;;;;59.00;16.83;;;;;;;;;;5034331;28;20569;-67
2022/01/23 07:33:02;;;;;;;49.80;15.43;;;;;;;;;;5029091;28;20099;-67
2022/01/23 07:35:28;;;;;;;47.40;15.87;;;;;;;;;;5023871;28;20460;-68
2022/01/23 07:37:54;;;;;;;52.43;17.07;;;;;;;;;;5026209;28;20045;-68
2022/01/23 07:40:20;;;;;;;51.60;15.53;;;;;;;;;;5027985;28;20045;-68
2022/01/23 07:42:46;;;;;;;45.97;15.53;;;;;;;;;;5028002;28;20160;-67
2022/01/23 07:45:12;;;;;;;58.00;16.43;;;;;;;;;;5026423;28;20075;-68
2022/01/23 07:47:38;;;;;;;62.50;18.57;;;;;;;;;;5026221;28;20042;-68
2022/01/23 07:50:07;;;;;;;96.13;21.83;;;;;;;;;;5026924;28;20052;-68
2022/01/23 07:52:35;;;;;;;77.80;19.33;;;;;;;;;;5027332;28;20049;-68
2022/01/23 07:55:02;;;;;;;104.73;21.77;;;;;;;;;;5027984;28;20050;-68
2022/01/23 07:57:28;;;;;;;49.47;16.60;;;;;;;;;;5027391;28;20045;-67
2022/01/23 07:59:54;;;;;;;50.77;14.73;;;;;;;;;;5021466;28;20410;-68
2022/01/23 08:02:22;;;;;;;47.47;16.10;;;;;;;;;;5026667;28;20223;-68
2022/01/23 08:04:48;;;;;;;62.17;16.70;;;;;;;;;;5029039;28;20080;-67
2022/01/23 08:09:59;;;;;;;49.50;14.80;;;;;;;;;;5039981;28;20451;-68
2022/01/23 08:12:29;;;;;;;37.07;13.83;;;;;;;;;;5042344;28;20048;-67
2022/01/23 08:14:55;;;;;;;42.17;14.20;;;;;;;;;;5027533;28;20045;-67
2022/01/23 08:17:25;;;;;;;37.90;14.60;;;;;;;;;;5040098;28;20044;-67
2022/01/23 08:19:55;;;;;;;41.00;14.43;;;;;;;;;;5044993;28;20053;-68
2022/01/23 08:22:22;;;;;;;48.33;14.63;;;;;;;;;;5031010;28;20573;-68
2022/01/23 08:24:48;;;;;;;45.23;14.10;;;;;;;;;;5024806;28;20057;-67
2022/01/23 08:27:14;;;;;;;43.40;14.27;;;;;;;;;;5044001;28;20049;-67
2022/01/23 08:29:40;;;;;;;43.73;15.10;;;;;;;;;;5039535;28;20102;-67
2022/01/23 08:32:06;;;;;;;46.67;14.30;;;;;;;;;;5043511;28;20060;-67
2022/01/23 08:34:32;;;;;;;44.23;14.77;;;;;;;;;;5027959;28;20053;-68
2022/01/23 08:36:59;;;;;;;44.43;14.93;;;;;;;;;;5034272;28;20128;-68
2022/01/23 08:39:26;;;;;;;48.80;14.47;;;;;;;;;;5045246;28;20076;-68
2022/01/23 08:41:52;;;;;;;38.17;13.97;;;;;;;;;;5032417;28;20049;-68
2022/01/23 08:44:23;;;;;;;36.90;13.07;;;;;;;;;;5032019;28;20045;-68
2022/01/23 08:46:49;;;;;;;41.53;16.00;;;;;;;;;;5032311;28;20171;-68
2022/01/23 08:49:17;;;;;;;47.20;16.07;;;;;;;;;;5050747;28;20521;-68
2022/01/23 08:51:43;;;;;;;50.37;16.03;;;;;;;;;;5048873;28;20127;-68
2022/01/23 08:54:10;;;;;;;51.40;17.07;;;;;;;;;;5044358;28;20508;-68
2022/01/23 08:56:36;;;;;;;52.07;17.10;;;;;;;;;;5034043;28;20473;-68
2022/01/23 08:59:02;;;;;;;42.27;16.00;;;;;;;;;;5047253;28;20053;-68
2022/01/23 09:01:28;;;;;;;40.10;15.77;;;;;;;;;;5045806;28;20503;-68
2022/01/23 09:03:54;;;;;;;46.20;16.27;;;;;;;;;;5037677;28;20064;-68
2022/01/23 09:06:21;;;;;;;44.07;16.30;;;;;;;;;;5041665;28;20542;-68
2022/01/23 09:08:47;;;;;;;45.90;17.97;;;;;;;;;;5035396;28;20053;-68
2022/01/23 09:11:25;;;;;;;41.13;16.67;;;;;;;;;;5037814;28;20052;-68
2022/01/23 09:14:05;;;;;;;43.70;16.37;;;;;;;;;;5043609;28;20049;-68
2022/01/23 09:16:31;;;;;;;42.27;15.03;;;;;;;;;;5042761;28;20527;-68
2022/01/23 09:18:57;;;;;;;44.17;16.63;;;;;;;;;;5047181;28;20057;-68
2022/01/23 09:21:23;;;;;;;39.80;15.20;;;;;;;;;;5048764;28;20700;-68
2022/01/23 09:23:49;;;;;;;48.30;16.37;;;;;;;;;;5036790;28;20044;-68
2022/01/23 09:26:18;;;;;;;34.90;15.50;;;;;;;;;;5035341;28;20217;-68
2022/01/23 09:28:45;;;;;;;43.90;16.60;;;;;;;;;;5034726;28;20507;-68
2022/01/23 09:31:13;;;;;;;45.77;15.97;;;;;;;;;;5034775;28;20045;-66
2022/01/23 09:33:39;;;;;;;45.30;16.10;;;;;;;;;;5048089;28;20053;-66
2022/01/23 09:36:05;;;;;;;31.30;14.63;;;;;;;;;;5038114;28;20415;-66
2022/01/23 09:38:31;;;;;;;40.13;15.50;;;;;;;;;;5037974;28;20148;-66
2022/01/23 09:40:58;;;;;;;43.90;15.37;;;;;;;;;;5041268;28;20045;-66
2022/01/23 09:43:25;;;;;;;32.13;13.20;;;;;;;;;;5034689;28;20080;-67
2022/01/23 09:45:53;;;;;;;29.80;12.77;;;;;;;;;;5038001;28;20157;-66
2022/01/23 09:48:19;;;;;;;27.97;12.73;;;;;;;;;;5040564;28;20083;-66
2022/01/23 09:50:47;;;;;;;30.13;13.07;;;;;;;;;;5036555;28;20041;-66
2022/01/23 09:53:14;;;;;;;26.70;12.20;;;;;;;;;;5034145;28;20521;-65
2022/01/23 09:55:41;;;;;;;23.57;12.17;;;;;;;;;;5023351;28;20045;-66
2022/01/23 09:58:07;;;;;;;27.10;12.07;;;;;;;;;;5040052;28;20049;-65
2022/01/23 10:00:33;;;;;;;31.13;13.17;;;;;;;;;;5037563;28;20053;-65
2022/01/23 10:03:00;;;;;;;26.53;12.17;;;;;;;;;;5033205;28;20045;-65
2022/01/23 10:05:27;;;;;;;26.10;11.37;;;;;;;;;;5027682;28;20081;-65
2022/01/23 10:07:53;;;;;;;19.43;10.40;;;;;;;;;;5028818;28;20045;-65
2022/01/23 10:10:27;;;;;;;19.07;9.17;;;;;;;;;;5019914;28;20043;-65
2022/01/23 10:12:55;;;;;;;16.70;8.50;;;;;;;;;;5021731;28;20109;-66
2022/01/23 10:15:25;;;;;;;14.60;8.43;;;;;;;;;;5028722;28;20034;-66
2022/01/23 10:17:51;;;;;;;25.03;9.50;;;;;;;;;;5027491;28;20507;-65
2022/01/23 10:20:17;;;;;;;18.37;9.73;;;;;;;;;;5028640;28;20056;-65
2022/01/23 10:22:46;;;;;;;18.20;8.80;;;;;;;;;;5029131;28;20099;-65
2022/01/23 10:25:14;;;;;;;15.00;8.70;;;;;;;;;;5026246;28;20073;-66
2022/01/23 10:27:56;;;;;;;18.17;9.43;;;;;;;;;;5024431;28;20126;-65
2022/01/23 10:30:24;;;;;;;17.17;9.00;;;;;;;;;;5027690;28;20080;-66
2022/01/23 10:33:00;;;;;;;15.07;8.13;;;;;;;;;;5027121;28;20041;-66
2022/01/23 10:35:27;;;;;;;12.47;7.63;;;;;;;;;;5023939;28;20051;-66
2022/01/23 10:37:55;;;;;;;13.80;8.57;;;;;;;;;;5033325;28;20060;-66
2022/01/23 10:40:22;;;;;;;12.40;7.67;;;;;;;;;;5025980;28;20034;-66
2022/01/23 10:50:49;;;;;;;8.70;5.93;;;;;;;;;;5028187;28;20037;-67
2022/01/23 10:53:15;;;;;;;10.70;6.30;;;;;;;;;;5026986;28;20053;-66
2022/01/23 10:55:43;;;;;;;10.10;6.50;;;;;;;;;;5026660;28;20103;-66
2022/01/23 10:58:18;;;;;;;10.10;7.43;;;;;;;;;;5026700;28;20045;-67
2022/01/23 11:00:45;;;;;;;12.27;7.20;;;;;;;;;;5022397;28;20117;-67
2022/01/23 11:03:14;;;;;;;9.47;6.50;;;;;;;;;;5027376;28;20040;-67
2022/01/23 11:05:40;;;;;;;11.43;6.57;;;;;;;;;;5020832;28;20052;-67
2022/01/23 11:08:23;;;;;;;11.10;7.10;;;;;;;;;;5027953;28;20131;-67
2022/01/23 11:11:06;;;;;;;8.57;6.32;;;;;;;;;;5028234;28;20088;-67
2022/01/23 11:19:19;;;;;;;8.77;5.40;;;;;;;;;;5019264;28;20141;-67
2022/01/23 11:21:45;;;;;;;6.63;4.43;;;;;;;;;;5027990;28;20164;-67
2022/01/23 11:24:12;;;;;;;6.73;4.03;;;;;;;;;;5027037;28;20099;-67
2022/01/23 11:26:39;;;;;;;4.20;2.27;;;;;;;;;;5028106;28;21606;-67
2022/01/23 11:29:12;;;;;;;3.77;2.50;;;;;;;;;;5026273;28;20041;-67
2022/01/23 11:31:39;;;;;;;3.92;2.38;;;;;;;;;;5026537;28;20116;-67
2022/01/23 11:34:08;;;;;;;4.27;1.90;;;;;;;;;;5026022;28;20509;-68
2022/01/23 11:36:34;;;;;;;3.00;1.60;;;;;;;;;;5027566;28;20120;-67
2022/01/23 11:39:09;;;;;;;3.10;1.73;;;;;;;;;;5026069;28;20037;-68
2022/01/23 11:55:45;;;;;;;1.07;0.40;;;;;;;;;;5026444;28;20045;-67
2022/01/23 11:58:31;;;;;;;2.70;0.50;;;;;;;;;;5026112;28;20076;-68
2022/01/23 12:01:16;;;;;;;2.67;1.23;;;;;;;;;;5025964;28;20045;-68
2022/01/23 12:04:02;;;;;;;2.50;1.20;;;;;;;;;;5002443;28;20072;-68
2022/01/23 12:06:28;;;;;;;2.13;0.83;;;;;;;;;;5026100;28;20076;-69
2022/01/23 12:09:11;;;;;;;5.13;1.00;;;;;;;;;;5019726;28;20071;-67
2022/01/23 12:16:57;;;;;;;2.13;0.93;;;;;;;;;;5030014;28;20065;-69
2022/01/23 12:19:24;;;;;;;2.43;0.90;;;;;;;;;;5017232;28;20062;-68
2022/01/23 12:21:52;;;;;;;1.87;1.00;;;;;;;;;;5031006;28;20049;-68
2022/01/23 12:24:19;;;;;;;1.90;0.97;;;;;;;;;;5031080;28;20041;-68
2022/01/23 12:26:46;;;;;;;2.23;0.80;;;;;;;;;;5029892;28;20073;-68
2022/01/23 12:29:23;;;;;;;2.80;0.87;;;;;;;;;;5028986;28;20521;-68
2022/01/23 12:31:50;;;;;;;3.53;1.20;;;;;;;;;;5030315;28;20061;-68
2022/01/23 12:34:16;;;;;;;2.40;1.20;;;;;;;;;;5021505;28;20468;-68
2022/01/23 12:36:54;;;;;;;3.47;1.50;;;;;;;;;;5021198;28;20420;-68
2022/01/23 12:39:20;;;;;;;2.60;1.50;;;;;;;;;;5030945;28;20175;-68
2022/01/23 12:41:53;;;;;;;3.43;1.47;;;;;;;;;;5029428;28;20037;-69
2022/01/23 12:44:22;;;;;;;3.25;1.52;;;;;;;;;;5029547;28;20063;-68
2022/01/23 12:46:50;;;;;;;2.43;1.43;;;;;;;;;;5029654;28;20132;-69
2022/01/23 12:49:18;;;;;;;4.37;2.57;;;;;;;;;;5030569;28;20103;-69
2022/01/23 12:51:44;;;;;;;3.27;1.93;;;;;;;;;;5028683;28;20435;-69
2022/01/23 12:54:12;;;;;;;3.33;1.70;;;;;;;;;;5028369;28;20484;-69
2022/01/23 12:56:42;;;;;;;3.37;1.90;;;;;;;;;;5021370;28;20050;-69
2022/01/23 12:59:11;;;;;;;4.50;1.93;;;;;;;;;;5022137;28;20053;-69
2022/01/23 13:01:41;;;;;;;3.00;1.80;;;;;;;;;;5028724;28;20085;-69
2022/01/23 13:04:08;;;;;;;2.83;1.70;;;;;;;;;;5038068;28;20041;-69
2022/01/23 13:06:39;;;;;;;4.83;1.90;;;;;;;;;;5036384;28;20053;-68
2022/01/23 13:12:07;;;;;;;3.27;1.63;;;;;;;;;;5036710;28;20500;-69
2022/01/23 13:14:41;;;;;;;3.23;1.87;;;;;;;;;;5016403;28;20059;-69
2022/01/23 13:30:31;;;;;;;4.80;3.27;;;;;;;;;;5032036;28;20438;-69
2022/01/23 13:33:02;;;;;;;5.37;2.13;;;;;;;;;;5038256;28;20045;-69
2022/01/23 13:35:34;;;;;;;3.20;2.10;;;;;;;;;;5038803;28;20081;-69
2022/01/23 13:38:03;;;;;;;5.00;2.10;;;;;;;;;;5042179;28;20107;-69
2022/01/23 13:40:38;;;;;;;4.07;1.80;;;;;;;;;;5028770;28;20555;-69
2022/01/23 13:49:20;;;;;;;3.80;2.27;;;;;;;;;;5051196;28;20069;-69
2022/01/23 14:02:27;;;;;;;5.53;3.40;;;;;;;;;;5034277;28;20041;-69
2022/01/23 14:04:56;;;;;;;4.70;2.80;;;;;;;;;;5032266;28;20064;-69
2022/01/23 14:07:23;;;;;;;5.47;2.90;;;;;;;;;;5035881;28;20045;-69
2022/01/23 14:09:50;;;;;;;5.77;3.43;;;;;;;;;;5037657;28;20045;-70
2022/01/23 14:12:17;;;;;;;6.30;3.40;;;;;;;;;;5036232;28;20522;-69
2022/01/23 14:14:54;;;;;;;3.83;2.27;;;;;;;;;;5033925;28;20081;-69
2022/01/23 14:17:20;;;;;;;5.30;3.20;;;;;;;;;;5032035;28;20124;-69
2022/01/23 14:19:56;;;;;;;6.40;3.30;;;;;;;;;;5036398;28;20061;-70
2022/01/23 14:22:29;;;;;;;6.43;3.17;;;;;;;;;;5030513;28;20041;-69
2022/01/23 14:25:12;;;;;;;5.45;3.42;;;;;;;;;;5031156;28;20087;-69
2022/01/23 14:27:39;;;;;;;5.22;2.80;;;;;;;;;;5031258;28;20488;-69
2022/01/23 14:30:07;;;;;;;5.70;1.77;;;;;;;;;;5031317;28;20064;-69
2022/01/23 14:33:06;;;;;;;4.00;2.00;;;;;;;;;;5032143;28;20041;-70
2022/01/23 14:35:30;;;;;;;7.03;3.87;;;;;;;;;;5033404;28;20094;-69
2022/01/23 14:38:18;;;;;;;5.73;2.43;;;;;;;;;;5031455;28;20041;-70
2022/01/23 14:41:09;;;;;;;5.90;2.53;;;;;;;;;;5035878;28;20049;-70
2022/01/23 14:43:39;;;;;;;3.33;2.10;;;;;;;;;;5045933;28;20053;-69
2022/01/23 14:46:06;;;;;;;4.30;2.20;;;;;;;;;;5029522;28;20049;-69
2022/01/23 14:48:37;;;;;;;5.97;3.23;;;;;;;;;;5033416;28;20037;-69
2022/01/23 14:51:05;;;;;;;5.20;3.03;;;;;;;;;;5015289;28;20050;-70
2022/01/23 14:53:33;;;;;;;5.27;2.20;;;;;;;;;;5031241;28;20091;-69
2022/01/23 14:56:00;;;;;;;4.20;1.50;;;;;;;;;;5033453;28;20052;-70
2022/01/23 14:58:29;;;;;;;3.43;1.40;;;;;;;;;;5030654;28;20041;-70
2022/01/23 15:00:58;;;;;;;3.93;1.97;;;;;;;;;;5019530;28;20076;-70
2022/01/23 15:03:25;;;;;;;3.53;1.10;;;;;;;;;;5022170;28;20056;-70
2022/01/23 15:05:52;;;;;;;2.90;0.90;;;;;;;;;;5022062;28;20118;-70
2022/01/23 15:08:22;;;;;;;2.53;1.13;;;;;;;;;;5028284;28;20857;-70
2022/01/23 15:10:48;;;;;;;3.30;1.10;;;;;;;;;;5032325;28;20056;-70
2022/01/23 15:13:14;;;;;;;2.10;1.00;;;;;;;;;;5034606;28;20044;-69
2022/01/23 15:15:41;;;;;;;2.70;1.23;;;;;;;;;;5016562;28;20050;-70
2022/01/23 15:18:08;;;;;;;3.27;0.80;;;;;;;;;;5035264;28;20049;-69
2022/01/23 15:20:35;;;;;;;4.90;1.20;;;;;;;;;;5034057;28;20484;-70
2022/01/23 15:23:01;;;;;;;2.97;0.70;;;;;;;;;;5031699;28;20049;-70
2022/01/23 15:25:28;;;;;;;1.40;0.90;;;;;;;;;;5035194;28;20072;-69
2022/01/23 15:27:54;;;;;;;2.83;1.10;;;;;;;;;;5036702;28;20124;-70
2022/01/23 15:30:22;;;;;;;1.70;0.80;;;;;;;;;;5032772;28;20437;-70
2022/01/23 15:32:51;;;;;;;4.70;1.90;;;;;;;;;;5024819;28;20064;-70
2022/01/23 15:35:17;;;;;;;6.57;3.33;;;;;;;;;;5023837;28;20041;-70
2022/01/23 15:37:43;;;;;;;5.63;2.97;;;;;;;;;;5026646;28;20119;-69
2022/01/23 15:40:10;;;;;;;5.33;3.93;;;;;;;;;;5022762;28;20080;-70
2022/01/23 15:42:36;;;;;;;4.83;3.00;;;;;;;;;;5029448;28;20041;-70
2022/01/23 15:45:03;;;;;;;2.63;1.20;;;;;;;;;;5033804;28;21422;-70
2022/01/23 15:47:29;;;;;;;4.97;2.30;;;;;;;;;;5024702;28;20056;-70
2022/01/23 15:49:55;;;;;;;4.77;2.53;;;;;;;;;;5032160;28;20045;-70
2022/01/23 15:52:21;;;;;;;3.50;2.60;;;;;;;;;;5034165;28;20049;-69
2022/01/23 15:54:47;;;;;;;8.13;4.87;;;;;;;;;;5030809;28;20053;-69
2022/01/23 15:57:14;;;;;;;7.17;4.77;;;;;;;;;;5031451;28;20045;-69
2022/01/23 15:59:40;;;;;;;5.60;3.20;;;;;;;;;;5027174;28;20060;-70
2022/01/23 16:02:07;;;;;;;4.27;2.30;;;;;;;;;;5031029;28;20041;-70
2022/01/23 16:04:37;;;;;;;3.20;2.03;;;;;;;;;;5031693;28;20370;-70
2022/01/23 16:07:03;;;;;;;3.53;2.13;;;;;;;;;;5029971;28;20050;-70
2022/01/23 16:09:29;;;;;;;4.73;2.00;;;;;;;;;;5032059;28;20534;-70
2022/01/23 16:11:55;;;;;;;2.90;1.70;;;;;;;;;;5032082;28;20060;-70
2022/01/23 16:14:21;;;;;;;4.40;2.80;;;;;;;;;;5032061;28;20560;-70
2022/01/23 16:16:48;;;;;;;5.70;1.90;;;;;;;;;;5032308;28;20442;-70
2022/01/23 16:19:15;;;;;;;3.10;1.93;;;;;;;;;;5030534;28;20057;-70
2022/01/23 16:21:41;;;;;;;3.87;2.33;;;;;;;;;;5033315;28;20049;-69
2022/01/23 16:24:08;;;;;;;3.60;1.67;;;;;;;;;;5031163;28;20832;-70
2022/01/23 16:26:34;;;;;;;4.23;2.23;;;;;;;;;;5033263;28;20045;-70
2022/01/23 16:29:00;;;;;;;3.60;1.90;;;;;;;;;;5036999;28;20045;-70
2022/01/23 16:31:26;;;;;;;4.33;2.07;;;;;;;;;;5034876;28;20045;-69
2022/01/23 16:33:52;;;;;;;4.17;2.60;;;;;;;;;;5038958;28;20067;-70
2022/01/23 16:36:19;;;;;;;6.30;4.20;;;;;;;;;;5038783;28;20124;-70
2022/01/23 16:38:45;;;;;;;6.23;4.07;;;;;;;;;;5020450;28;20089;-70
2022/01/23 16:41:11;;;;;;;7.43;3.97;;;;;;;;;;5013880;28;20048;-70
2022/01/23 16:43:37;;;;;;;6.40;3.70;;;;;;;;;;5031758;28;20082;-70
2022/01/23 16:46:04;;;;;;;6.93;3.73;;;;;;;;;;5024753;28;20129;-69
2022/01/23 16:48:30;;;;;;;7.87;5.10;;;;;;;;;;5031526;28;20499;-70
2022/01/23 16:50:57;;;;;;;8.60;5.37;;;;;;;;;;5033535;28;20136;-70
2022/01/23 16:53:24;;;;;;;7.13;4.67;;;;;;;;;;5031750;28;20041;-70
2022/01/23 16:55:56;;;;;;;7.10;4.87;;;;;;;;;;5023823;28;20151;-69
2022/01/23 16:58:22;;;;;;;8.67;4.50;;;;;;;;;;5033193;28;20075;-69
2022/01/23 17:00:48;;;;;;;7.03;4.63;;;;;;;;;;5027499;28;20057;-70
2022/01/23 17:03:14;;;;;;;9.13;6.13;;;;;;;;;;5031780;28;20044;-70
2022/01/23 17:05:43;;;;;;;7.67;4.70;;;;;;;;;;5036428;28;20079;-70
2022/01/23 17:08:09;;;;;;;5.27;3.73;;;;;;;;;;5036144;28;20147;-70
2022/01/23 17:10:35;;;;;;;5.80;4.07;;;;;;;;;;5037216;28;20136;-68
2022/01/23 17:13:01;;;;;;;7.40;4.30;;;;;;;;;;5034889;28;20581;-68
2022/01/23 17:15:27;;;;;;;7.80;5.07;;;;;;;;;;5036458;28;20049;-69
2022/01/23 17:17:53;;;;;;;10.87;5.67;;;;;;;;;;5023542;28;20057;-69
2022/01/23 17:20:20;;;;;;;10.57;5.90;;;;;;;;;;5028435;28;20057;-69
2022/01/23 17:22:47;;;;;;;9.23;5.47;;;;;;;;;;5039254;28;20054;-69
2022/01/23 17:25:13;;;;;;;9.03;5.70;;;;;;;;;;5017588;28;20057;-69
2022/01/23 17:27:39;;;;;;;11.77;5.20;;;;;;;;;;5023083;28;20049;-68
2022/01/23 17:30:05;;;;;;;6.70;4.43;;;;;;;;;;5028209;28;20411;-69
2022/01/23 17:32:31;;;;;;;6.80;4.90;;;;;;;;;;5032558;28;20061;-69
2022/01/23 17:34:57;;;;;;;8.43;4.47;;;;;;;;;;5030849;28;20132;-69
2022/01/23 17:37:23;;;;;;;7.10;4.27;;;;;;;;;;5036981;28;20182;-69
2022/01/23 17:39:49;;;;;;;8.13;5.60;;;;;;;;;;5039387;28;20037;-69
2022/01/23 17:42:16;;;;;;;6.97;4.70;;;;;;;;;;5029866;28;20121;-69
2022/01/23 17:44:46;;;;;;;9.20;5.80;;;;;;;;;;5025795;28;20059;-69
2022/01/23 17:50:04;;;;;;;7.13;4.80;;;;;;;;;;5021703;28;20049;-69
2022/01/23 17:52:30;;;;;;;8.47;5.80;;;;;;;;;;5027234;28;20596;-70
2022/01/23 17:54:56;;;;;;;7.47;5.00;;;;;;;;;;5027018;28;20843;-69
2022/01/23 17:57:22;;;;;;;8.60;5.27;;;;;;;;;;5026605;28;20072;-70
2022/01/23 17:59:48;;;;;;;6.70;4.53;;;;;;;;;;5027163;28;20073;-70
2022/01/23 18:02:15;;;;;;;6.87;4.80;;;;;;;;;;5027127;28;20055;-69
2022/01/23 18:04:41;;;;;;;6.60;5.10;;;;;;;;;;5021651;28;20048;-69
2022/01/23 18:07:09;;;;;;;8.30;6.33;;;;;;;;;;5044165;28;20393;-70
2022/01/23 18:09:36;;;;;;;9.20;6.60;;;;;;;;;;5027554;28;20045;-69
2022/01/23 18:12:02;;;;;;;9.37;6.23;;;;;;;;;;5026680;28;20115;-69